createdAt,value
2017-07-19T00:00:25.475Z,53.8
2017-07-19T00:01:27.669Z,53.9
2017-07-19T00:02:30.159Z,53.9
2017-07-19T00:03:32.326Z,54
2017-07-19T00:04:34.483Z,53.9
2017-07-19T00:05:36.686Z,53.9
2017-07-19T00:06:39.202Z,53.9
2017-07-19T00:07:41.667Z,53.9
2017-07-19T00:08:43.874Z,53.9
2017-07-19T00:09:46.379Z,54
2017-07-19T00:10:48.515Z,54
2017-07-19T00:11:50.684Z,54
2017-07-19T00:12:53.160Z,54
2017-07-19T00:13:55.273Z,54
2017-07-19T00:14:57.433Z,54
2017-07-19T00:15:59.644Z,54.1
2017-07-19T00:17:01.818Z,54.1
2017-07-19T00:18:04.666Z,54.1
2017-07-19T00:19:06.850Z,54.1
2017-07-19T00:20:09.434Z,54.1
2017-07-19T00:21:11.754Z,54.1
2017-07-19T00:22:14.208Z,54.2
2017-07-19T00:23:16.662Z,54.2
2017-07-19T00:24:19.123Z,54.3
2017-07-19T00:25:21.607Z,54.2
2017-07-19T00:26:24.418Z,54.3
2017-07-19T00:27:26.548Z,54.3
2017-07-19T00:28:28.999Z,54.2
2017-07-19T00:29:31.122Z,54.3
2017-07-19T00:30:33.592Z,54.3
2017-07-19T00:31:35.729Z,54.4
2017-07-19T00:32:37.854Z,54.4
2017-07-19T00:33:39.983Z,54.4
2017-07-19T00:34:42.095Z,54.4
2017-07-19T00:35:44.210Z,54.4
2017-07-19T00:36:46.346Z,54.4
2017-07-19T00:37:48.800Z,54.4
2017-07-19T00:38:50.921Z,54.5
2017-07-19T00:39:53.039Z,54.5
2017-07-19T00:40:55.867Z,54.5
2017-07-19T00:41:58.361Z,54.6
2017-07-19T00:43:00.475Z,54.4
2017-07-19T00:44:02.931Z,54.5
2017-07-19T00:45:05.740Z,54.5
2017-07-19T00:46:08.214Z,54.6
2017-07-19T00:47:10.730Z,54.5
2017-07-19T00:48:13.535Z,54.6
2017-07-19T00:49:15.647Z,54.7
2017-07-19T00:50:18.119Z,54.7
2017-07-19T00:51:20.235Z,54.7
2017-07-19T00:52:22.698Z,54.7
2017-07-19T00:53:24.812Z,54.7
2017-07-19T00:54:26.939Z,54.7
2017-07-19T00:55:29.075Z,54.7
2017-07-19T00:56:31.215Z,54.8
2017-07-19T00:57:33.351Z,54.8
2017-07-19T00:58:35.814Z,54.8
2017-07-19T00:59:37.937Z,54.8
2017-07-19T01:00:40.049Z,54.9
2017-07-19T01:01:42.159Z,54.9
2017-07-19T01:02:44.234Z,54.9
2017-07-19T01:03:46.318Z,54.8
2017-07-19T01:04:48.400Z,55
2017-07-19T01:05:50.811Z,54.8
2017-07-19T01:06:52.889Z,54.9
2017-07-19T01:07:54.974Z,54.9
2017-07-19T01:08:57.026Z,54.9
2017-07-19T01:09:59.047Z,55
2017-07-19T01:11:01.072Z,54.9
2017-07-19T01:12:03.086Z,55
2017-07-19T01:13:05.466Z,55
2017-07-19T01:14:07.491Z,55.1
2017-07-19T01:15:09.881Z,55.1
2017-07-19T01:16:11.909Z,55.1
2017-07-19T01:17:14.616Z,55.1
2017-07-19T01:18:16.643Z,55.2
2017-07-19T01:19:19.700Z,55.2
2017-07-19T01:20:22.075Z,55.2
2017-07-19T01:21:24.448Z,55.2
2017-07-19T01:22:26.800Z,55.2
2017-07-19T01:23:28.829Z,55.2
2017-07-19T01:24:31.545Z,55.2
2017-07-19T01:25:33.919Z,55.2
2017-07-19T01:26:36.654Z,55.2
2017-07-19T01:27:38.678Z,55.2
2017-07-19T01:28:40.697Z,55.3
2017-07-19T01:29:42.731Z,55.3
2017-07-19T01:30:44.763Z,55.3
2017-07-19T01:31:46.784Z,55.2
2017-07-19T01:32:48.807Z,55.2
2017-07-19T01:33:50.831Z,55.2
2017-07-19T01:34:52.866Z,55.3
2017-07-19T01:35:54.881Z,55.3
2017-07-19T01:36:57.261Z,55.3
2017-07-19T01:37:59.310Z,55.4
2017-07-19T01:39:01.670Z,55.5
2017-07-19T01:40:04.373Z,55.5
2017-07-19T01:41:07.077Z,55.5
2017-07-19T01:42:09.095Z,55.6
2017-07-19T01:43:11.119Z,55.4
2017-07-19T01:44:13.144Z,55.5
2017-07-19T01:45:15.175Z,55.5
2017-07-19T01:46:17.187Z,55.6
2017-07-19T01:47:19.214Z,55.6
2017-07-19T01:48:21.244Z,55.6
2017-07-19T01:49:23.267Z,55.6
2017-07-19T01:50:25.292Z,55.6
2017-07-19T01:51:27.657Z,55.7
2017-07-19T01:52:30.028Z,55.6
2017-07-19T01:53:32.062Z,55.7
2017-07-19T01:54:34.086Z,55.8
2017-07-19T01:55:36.458Z,55.8
2017-07-19T01:56:38.477Z,55.8
2017-07-19T01:57:40.501Z,55.8
2017-07-19T01:58:42.526Z,55.8
2017-07-19T01:59:44.555Z,55.9
2017-07-19T02:00:46.583Z,55.9
2017-07-19T02:01:48.616Z,55.8
2017-07-19T02:02:50.624Z,55.9
2017-07-19T02:03:52.657Z,55.9
2017-07-19T02:04:55.350Z,56
2017-07-19T02:05:57.385Z,56
2017-07-19T02:06:59.408Z,56
2017-07-19T02:08:01.431Z,56
2017-07-19T02:09:03.780Z,56
2017-07-19T02:10:06.486Z,56
2017-07-19T02:11:08.904Z,56
2017-07-19T02:12:10.924Z,56
2017-07-19T02:13:12.946Z,56
2017-07-19T02:14:14.964Z,56.1
2017-07-19T02:15:17.676Z,56.1
2017-07-19T02:16:19.728Z,56.1
2017-07-19T02:17:21.758Z,56.1
2017-07-19T02:18:23.788Z,56.1
2017-07-19T02:19:26.127Z,56.1
2017-07-19T02:20:28.156Z,56.2
2017-07-19T02:21:30.183Z,56.2
2017-07-19T02:22:32.891Z,56.2
2017-07-19T02:23:35.249Z,56.2
2017-07-19T02:24:37.263Z,56.3
2017-07-19T02:25:39.982Z,56.2
2017-07-19T02:26:42.010Z,56.3
2017-07-19T02:27:44.368Z,56.3
2017-07-19T02:28:46.404Z,56.3
2017-07-19T02:29:49.107Z,56.3
2017-07-19T02:30:51.459Z,56.4
2017-07-19T02:31:54.176Z,56.3
2017-07-19T02:32:56.227Z,56.4
2017-07-19T02:33:58.256Z,56.4
2017-07-19T02:35:01.001Z,56.4
2017-07-19T02:36:03.359Z,56.4
2017-07-19T02:37:06.074Z,56.5
2017-07-19T02:38:08.095Z,56.4
2017-07-19T02:39:10.128Z,56.5
2017-07-19T02:40:12.506Z,56.5
2017-07-19T02:41:14.876Z,56.5
2017-07-19T02:42:17.251Z,56.5
2017-07-19T02:43:19.280Z,56.5
2017-07-19T02:44:21.302Z,56.5
2017-07-19T02:45:24.035Z,56.6
2017-07-19T02:46:26.065Z,56.6
2017-07-19T02:47:28.435Z,56.6
2017-07-19T02:48:30.469Z,56.7
2017-07-19T02:49:32.824Z,56.7
2017-07-19T02:50:34.866Z,56.7
2017-07-19T02:51:36.902Z,56.7
2017-07-19T02:52:38.921Z,56.8
2017-07-19T02:53:40.944Z,56.7
2017-07-19T02:54:43.305Z,56.8
2017-07-19T02:55:45.668Z,56.8
2017-07-19T02:56:47.687Z,56.8
2017-07-19T02:57:49.725Z,56.8
2017-07-19T02:58:51.752Z,56.9
2017-07-19T02:59:54.468Z,56.9
2017-07-19T03:00:56.839Z,57
2017-07-19T03:01:58.865Z,56.9
2017-07-19T03:03:00.886Z,56.9
2017-07-19T03:04:03.614Z,57
2017-07-19T03:05:05.643Z,56.9
2017-07-19T03:06:08.030Z,57
2017-07-19T03:07:10.382Z,57
2017-07-19T03:08:12.744Z,57
2017-07-19T03:09:15.140Z,56.9
2017-07-19T03:10:17.497Z,57
2017-07-19T03:11:19.872Z,57
2017-07-19T03:12:22.239Z,57
2017-07-19T03:13:24.264Z,57
2017-07-19T03:14:26.281Z,57.1
2017-07-19T03:15:28.643Z,57.2
2017-07-19T03:16:31.022Z,57.1
2017-07-19T03:17:33.050Z,57.2
2017-07-19T03:18:35.061Z,57.1
2017-07-19T03:19:37.431Z,57.2
2017-07-19T03:20:39.448Z,57.1
2017-07-19T03:21:41.472Z,57.2
2017-07-19T03:22:43.499Z,57.2
2017-07-19T03:23:45.533Z,57.2
2017-07-19T03:24:47.894Z,57.2
2017-07-19T03:25:50.290Z,57.2
2017-07-19T03:26:52.652Z,57.2
2017-07-19T03:27:54.669Z,57.3
2017-07-19T03:28:56.687Z,57.2
2017-07-19T03:29:59.379Z,57.2
2017-07-19T03:31:01.420Z,57.2
2017-07-19T03:32:03.802Z,57.2
2017-07-19T03:33:06.161Z,57.2
2017-07-19T03:34:08.191Z,57.3
2017-07-19T03:35:10.551Z,57.3
2017-07-19T03:36:12.913Z,57.3
2017-07-19T03:37:14.977Z,57.3
2017-07-19T03:38:18.034Z,57.3
2017-07-19T03:39:20.436Z,57.4
2017-07-19T03:40:22.793Z,57.4
2017-07-19T03:41:24.823Z,57.4
2017-07-19T03:42:26.860Z,57.4
2017-07-19T03:43:28.882Z,57.4
2017-07-19T03:44:31.252Z,57.4
2017-07-19T03:45:33.620Z,57.4
2017-07-19T03:46:35.648Z,57.4
2017-07-19T03:47:37.675Z,57.4
2017-07-19T03:48:39.694Z,57.4
2017-07-19T03:49:41.730Z,57.4
2017-07-19T03:50:43.758Z,57.4
2017-07-19T03:51:45.787Z,57.4
2017-07-19T03:52:47.822Z,57.4
2017-07-19T03:53:50.532Z,57.4
2017-07-19T03:54:52.895Z,57.4
2017-07-19T03:55:54.941Z,57.4
2017-07-19T03:56:57.294Z,57.5
2017-07-19T03:57:59.674Z,57.5
2017-07-19T03:59:02.384Z,57.6
2017-07-19T04:00:04.756Z,57.5
2017-07-19T04:01:06.825Z,57.6
2017-07-19T04:02:08.866Z,57.6
2017-07-19T04:03:10.888Z,57.6
2017-07-19T04:04:12.915Z,57.6
2017-07-19T04:05:15.277Z,57.6
2017-07-19T04:06:17.642Z,57.6
2017-07-19T04:07:20.341Z,57.6
2017-07-19T04:08:23.057Z,57.6
2017-07-19T04:09:25.090Z,57.6
2017-07-19T04:10:27.449Z,57.6
2017-07-19T04:11:29.479Z,57.6
2017-07-19T04:12:31.852Z,57.6
2017-07-19T04:13:34.565Z,57.6
2017-07-19T04:14:36.595Z,57.6
2017-07-19T04:15:38.630Z,57.7
2017-07-19T04:16:41.005Z,57.7
2017-07-19T04:17:43.373Z,57.7
2017-07-19T04:18:45.395Z,57.7
2017-07-19T04:19:47.414Z,57.6
2017-07-19T04:20:49.784Z,57.6
2017-07-19T04:21:51.808Z,57.7
2017-07-19T04:22:53.842Z,57.8
2017-07-19T04:23:55.873Z,57.7
2017-07-19T04:24:57.896Z,57.7
2017-07-19T04:25:59.923Z,57.7
2017-07-19T04:27:02.283Z,57.6
2017-07-19T04:28:04.638Z,57.7
2017-07-19T04:29:06.665Z,57.6
2017-07-19T04:30:08.717Z,57.7
2017-07-19T04:31:10.749Z,57.7
2017-07-19T04:32:13.115Z,57.7
2017-07-19T04:33:15.523Z,57.6
2017-07-19T04:34:17.547Z,57.6
2017-07-19T04:35:20.256Z,57.6
2017-07-19T04:36:22.621Z,57.6
2017-07-19T04:37:24.651Z,57.6
2017-07-19T04:38:26.680Z,57.6
2017-07-19T04:39:28.719Z,57.6
2017-07-19T04:40:30.741Z,57.6
2017-07-19T04:41:33.109Z,57.5
2017-07-19T04:42:35.485Z,57.6
2017-07-19T04:43:37.871Z,57.5
2017-07-19T04:44:39.911Z,57.6
2017-07-19T04:45:41.935Z,57.6
2017-07-19T04:46:43.976Z,57.5
2017-07-19T04:47:46.334Z,57.6
2017-07-19T04:48:48.686Z,57.6
2017-07-19T04:49:51.418Z,57.6
2017-07-19T04:50:53.443Z,57.6
2017-07-19T04:51:55.480Z,57.6
2017-07-19T04:52:57.523Z,57.5
2017-07-19T04:53:59.889Z,57.5
2017-07-19T04:55:01.913Z,57.6
2017-07-19T04:56:03.947Z,57.6
2017-07-19T04:57:06.315Z,57.6
2017-07-19T04:58:08.703Z,57.6
2017-07-19T04:59:11.411Z,57.5
2017-07-19T05:00:13.767Z,57.4
2017-07-19T05:01:16.134Z,57.4
2017-07-19T05:02:18.502Z,57.2
2017-07-19T05:03:20.890Z,57.3
2017-07-19T05:04:23.594Z,57.3
2017-07-19T05:05:25.617Z,57.4
2017-07-19T05:06:27.984Z,57.3
2017-07-19T05:07:30.350Z,57.4
2017-07-19T05:08:32.376Z,57.3
2017-07-19T05:09:34.398Z,57.4
2017-07-19T05:10:36.429Z,57.4
2017-07-19T05:11:38.813Z,57.4
2017-07-19T05:12:41.175Z,57.4
2017-07-19T05:13:43.213Z,57.3
2017-07-19T05:14:45.238Z,57.4
2017-07-19T05:15:47.267Z,57.4
2017-07-19T05:16:49.285Z,57.4
2017-07-19T05:17:51.318Z,57.5
2017-07-19T05:18:53.342Z,57.6
2017-07-19T05:19:55.711Z,57.5
2017-07-19T05:20:57.745Z,57.6
2017-07-19T05:21:59.774Z,57.6
2017-07-19T05:23:01.801Z,57.6
2017-07-19T05:24:04.177Z,57.6
2017-07-19T05:25:06.541Z,57.6
2017-07-19T05:26:08.913Z,57.5
2017-07-19T05:27:11.630Z,57.5
2017-07-19T05:28:14.353Z,57.5
2017-07-19T05:29:16.372Z,57.4
2017-07-19T05:30:18.741Z,57.4
2017-07-19T05:31:21.459Z,57.6
2017-07-19T05:32:23.823Z,57.5
2017-07-19T05:33:25.860Z,57.5
2017-07-19T05:34:27.881Z,57.5
2017-07-19T05:35:29.921Z,57.5
2017-07-19T05:36:31.957Z,57.4
2017-07-19T05:37:34.318Z,57.4
2017-07-19T05:38:36.365Z,57.4
2017-07-19T05:39:38.725Z,57.4
2017-07-19T05:40:40.748Z,57.6
2017-07-19T05:41:43.122Z,57.4
2017-07-19T05:42:45.514Z,57.6
2017-07-19T05:43:47.541Z,57.6
2017-07-19T05:44:49.562Z,57.6
2017-07-19T05:45:51.935Z,57.4
2017-07-19T05:46:53.968Z,57.6
2017-07-19T05:47:56.009Z,57.6
2017-07-19T05:48:58.372Z,57.6
2017-07-19T05:50:00.398Z,57.5
2017-07-19T05:51:02.425Z,57.6
2017-07-19T05:52:04.786Z,57.6
2017-07-19T05:53:07.169Z,57.6
2017-07-19T05:54:09.546Z,57.6
2017-07-19T05:55:11.591Z,57.6
2017-07-19T05:56:13.624Z,57.7
2017-07-19T05:57:15.984Z,57.7
2017-07-19T05:58:18.031Z,57.7
2017-07-19T05:59:20.063Z,57.8
2017-07-19T06:00:22.454Z,57.7
2017-07-19T06:01:24.485Z,57.7
2017-07-19T06:02:26.528Z,57.8
2017-07-19T06:03:28.572Z,57.8
2017-07-19T06:04:30.592Z,57.9
2017-07-19T06:05:32.992Z,57.7
2017-07-19T06:06:35.399Z,57.8
2017-07-19T06:07:37.422Z,57.7
2017-07-19T06:08:39.449Z,57.6
2017-07-19T06:09:41.481Z,57.6
2017-07-19T06:10:43.859Z,57.6
2017-07-19T06:11:46.234Z,57.5
2017-07-19T06:12:48.254Z,57.6
2017-07-19T06:13:50.279Z,57.6
2017-07-19T06:14:52.664Z,57.6
2017-07-19T06:15:55.376Z,57.6
2017-07-19T06:16:57.393Z,57.5
2017-07-19T06:17:59.419Z,57.5
2017-07-19T06:19:01.451Z,57.6
2017-07-19T06:20:04.163Z,57.6
2017-07-19T06:21:06.534Z,57.6
2017-07-19T06:22:08.905Z,57.4
2017-07-19T06:23:10.938Z,57.4
2017-07-19T06:24:12.963Z,57.3
2017-07-19T06:25:14.987Z,57.4
2017-07-19T06:26:17.026Z,57.3
2017-07-19T06:27:19.056Z,57.4
2017-07-19T06:28:21.071Z,57.4
2017-07-19T06:29:23.115Z,57.5
2017-07-19T06:30:25.167Z,57.4
2017-07-19T06:31:27.190Z,57.4
2017-07-19T06:32:29.897Z,57.5
2017-07-19T06:33:32.268Z,57.4
2017-07-19T06:34:34.292Z,57.3
2017-07-19T06:35:36.331Z,57.2
2017-07-19T06:36:38.699Z,57.3
2017-07-19T06:37:40.723Z,57.2
2017-07-19T06:38:42.768Z,57.2
2017-07-19T06:39:44.796Z,57.2
2017-07-19T06:40:46.832Z,57.3
2017-07-19T06:41:49.197Z,57.1
2017-07-19T06:42:51.906Z,57
2017-07-19T06:43:53.946Z,56.9
2017-07-19T06:44:56.304Z,56.9
2017-07-19T06:45:58.340Z,56.8
2017-07-19T06:47:00.384Z,56.9
2017-07-19T06:48:03.129Z,56.9
2017-07-19T06:49:05.835Z,56.9
2017-07-19T06:50:07.873Z,57
2017-07-19T06:51:09.906Z,57
2017-07-19T06:52:11.955Z,56.9
2017-07-19T06:53:13.990Z,56.9
2017-07-19T06:54:16.022Z,56.8
2017-07-19T06:55:18.720Z,56.8
2017-07-19T06:56:20.750Z,56.8
2017-07-19T06:57:23.109Z,56.9
2017-07-19T06:58:25.152Z,56.9
2017-07-19T06:59:27.177Z,56.8
2017-07-19T07:00:29.211Z,56.9
2017-07-19T07:01:31.585Z,56.8
2017-07-19T07:02:33.643Z,56.9
2017-07-19T07:03:36.398Z,56.8
2017-07-19T07:04:38.559Z,56.8
2017-07-19T07:05:41.006Z,56.9
2017-07-19T07:06:43.162Z,56.8
2017-07-19T07:07:45.268Z,56.7
2017-07-19T07:08:47.372Z,56.6
2017-07-19T07:09:49.803Z,56.7
2017-07-19T07:10:51.888Z,56.6
2017-07-19T07:11:54.364Z,56.6
2017-07-19T07:12:56.491Z,56.6
2017-07-19T07:13:58.693Z,56.6
2017-07-19T07:15:00.837Z,56.5
2017-07-19T07:16:02.983Z,56.6
2017-07-19T07:17:05.746Z,56.4
2017-07-19T07:18:08.167Z,56.4
2017-07-19T07:19:10.344Z,56.4
2017-07-19T07:20:12.832Z,56.4
2017-07-19T07:21:14.975Z,56.4
2017-07-19T07:22:17.750Z,56.4
2017-07-19T07:23:19.826Z,56.3
2017-07-19T07:24:21.902Z,56.3
2017-07-19T07:25:24.048Z,56.2
2017-07-19T07:26:26.221Z,56.3
2017-07-19T07:27:28.326Z,56.2
2017-07-19T07:28:30.805Z,56.2
2017-07-19T07:29:32.927Z,56.1
2017-07-19T07:30:35.547Z,56
2017-07-19T07:31:37.959Z,56
2017-07-19T07:32:40.387Z,55.8
2017-07-19T07:33:42.850Z,55.7
2017-07-19T07:34:45.323Z,55.7
2017-07-19T07:35:47.461Z,55.7
2017-07-19T07:36:49.553Z,55.7
2017-07-19T07:37:51.670Z,55.6
2017-07-19T07:38:53.755Z,55.5
2017-07-19T07:39:55.810Z,55.5
2017-07-19T07:40:58.253Z,55.3
2017-07-19T07:42:00.339Z,55.2
2017-07-19T07:43:02.435Z,55.3
2017-07-19T07:44:04.633Z,55.3
2017-07-19T07:45:06.768Z,55.3
2017-07-19T07:46:08.895Z,55.2
2017-07-19T07:47:11.024Z,55.2
2017-07-19T07:48:13.108Z,55.1
2017-07-19T07:49:15.218Z,55
2017-07-19T07:50:17.303Z,54.6
2017-07-19T07:51:19.399Z,54.6
2017-07-19T07:52:21.501Z,54.5
2017-07-19T07:53:23.637Z,54.6
2017-07-19T07:54:26.113Z,54.6
2017-07-19T07:55:28.246Z,54.7
2017-07-19T07:56:30.320Z,54.7
2017-07-19T07:57:32.445Z,54.7
2017-07-19T07:58:34.589Z,54.7
2017-07-19T07:59:36.661Z,54.7
2017-07-19T08:00:39.101Z,54.7
2017-07-19T08:01:41.533Z,54.7
2017-07-19T08:02:43.626Z,54.7
2017-07-19T08:03:45.712Z,54.7
2017-07-19T08:04:48.208Z,54.7
2017-07-19T08:05:51.026Z,54.7
2017-07-19T08:06:53.160Z,54.8
2017-07-19T08:07:55.230Z,54.8
2017-07-19T08:08:57.343Z,54.8
2017-07-19T08:09:59.487Z,54.8
2017-07-19T08:11:02.303Z,54.8
2017-07-19T08:12:04.422Z,54.8
2017-07-19T08:13:06.609Z,54.8
2017-07-19T08:14:09.083Z,54.8
2017-07-19T08:15:11.215Z,54.7
2017-07-19T08:16:13.326Z,54.5
2017-07-19T08:17:15.496Z,54.4
2017-07-19T08:18:17.561Z,54.4
2017-07-19T08:19:20.056Z,54.4
2017-07-19T08:20:22.161Z,54.3
2017-07-19T08:21:24.291Z,54.4
2017-07-19T08:22:26.486Z,54.4
2017-07-19T08:23:28.757Z,54.4
2017-07-19T08:24:30.920Z,54.2
2017-07-19T08:25:33.009Z,54
2017-07-19T08:26:35.430Z,54
2017-07-19T08:27:37.885Z,53.8
2017-07-19T08:28:39.950Z,53.8
2017-07-19T08:29:42.101Z,53.7
2017-07-19T08:30:44.535Z,53.7
2017-07-19T08:31:46.600Z,53.8
2017-07-19T08:32:48.730Z,53.7
2017-07-19T08:33:50.877Z,53.8
2017-07-19T08:34:52.949Z,53.7
2017-07-19T08:35:55.047Z,53.7
2017-07-19T08:36:57.543Z,53.8
2017-07-19T08:37:59.675Z,53.7
2017-07-19T08:39:02.483Z,53.7
2017-07-19T08:40:04.908Z,53.7
2017-07-19T08:41:07.325Z,53.5
2017-07-19T08:42:09.393Z,53.6
2017-07-19T08:43:11.461Z,53.6
2017-07-19T08:44:13.532Z,53.5
2017-07-19T08:45:15.943Z,53.4
2017-07-19T08:46:18.004Z,53.4
2017-07-19T08:47:20.421Z,53.3
2017-07-19T08:48:22.811Z,53.2
2017-07-19T08:49:25.227Z,53.2
2017-07-19T08:50:27.286Z,53.2
2017-07-19T08:51:29.720Z,53.1
2017-07-19T08:52:31.773Z,53.1
2017-07-19T08:53:33.874Z,52.9
2017-07-19T08:54:35.932Z,52.9
2017-07-19T08:55:38.357Z,52.8
2017-07-19T08:56:40.782Z,52.6
2017-07-19T08:57:42.835Z,52.5
2017-07-19T08:58:44.918Z,52.3
2017-07-19T08:59:47.012Z,52.3
2017-07-19T09:00:49.425Z,52
2017-07-19T09:01:51.494Z,52.1
2017-07-19T09:02:53.562Z,52.1
2017-07-19T09:03:55.622Z,52.1
2017-07-19T09:04:58.060Z,51.8
2017-07-19T09:06:00.814Z,51.9
2017-07-19T09:07:03.241Z,51.8
2017-07-19T09:08:06.001Z,51.7
2017-07-19T09:09:08.744Z,51.6
2017-07-19T09:10:11.153Z,51.4
2017-07-19T09:11:13.217Z,51.3
2017-07-19T09:12:15.286Z,51.3
2017-07-19T09:13:17.372Z,51.4
2017-07-19T09:14:20.467Z,51.5
2017-07-19T09:15:22.537Z,51.5
2017-07-19T09:16:24.610Z,51.5
2017-07-19T09:17:26.673Z,51.4
2017-07-19T09:18:29.431Z,51.4
2017-07-19T09:19:31.486Z,51.3
2017-07-19T09:20:33.569Z,51.2
2017-07-19T09:21:35.636Z,51
2017-07-19T09:22:37.698Z,50.9
2017-07-19T09:23:40.135Z,50.8
2017-07-19T09:24:42.206Z,50.8
2017-07-19T09:25:44.288Z,50.8
2017-07-19T09:26:46.697Z,50.8
2017-07-19T09:27:48.779Z,50.8
2017-07-19T09:28:50.850Z,50.7
2017-07-19T09:29:52.909Z,50.6
2017-07-19T09:30:54.980Z,50.4
2017-07-19T09:31:57.053Z,50.4
2017-07-19T09:32:59.122Z,50.3
2017-07-19T09:34:01.197Z,50.1
2017-07-19T09:35:03.282Z,50
2017-07-19T09:36:05.360Z,50
2017-07-19T09:37:07.455Z,49.8
2017-07-19T09:38:09.847Z,49.8
2017-07-19T09:39:11.925Z,49.7
2017-07-19T09:40:13.999Z,49.6
2017-07-19T09:41:16.412Z,49.6
2017-07-19T09:42:18.826Z,49.6
2017-07-19T09:43:20.885Z,49.5
2017-07-19T09:44:23.287Z,49.5
2017-07-19T09:45:25.383Z,49.5
2017-07-19T09:46:27.441Z,49.2
2017-07-19T09:47:30.539Z,49.3
2017-07-19T09:48:32.622Z,49
2017-07-19T09:49:34.681Z,49
2017-07-19T09:50:36.751Z,48.9
2017-07-19T09:51:39.158Z,48.7
2017-07-19T09:52:41.582Z,48.5
2017-07-19T09:53:43.661Z,48.4
2017-07-19T09:54:45.722Z,48.4
2017-07-19T09:55:47.822Z,48.3
2017-07-19T09:56:49.910Z,48.2
2017-07-19T09:57:52.317Z,48
2017-07-19T09:58:54.388Z,47.9
2017-07-19T09:59:56.805Z,47.8
2017-07-19T10:00:59.232Z,47.7
2017-07-19T10:02:01.298Z,47.8
2017-07-19T10:03:04.056Z,47.8
2017-07-19T10:04:06.481Z,47.7
2017-07-19T10:05:08.561Z,47.6
2017-07-19T10:06:10.634Z,47.5
2017-07-19T10:07:12.704Z,47.3
2017-07-19T10:08:15.120Z,47.1
2017-07-19T10:09:17.204Z,46.4
2017-07-19T10:10:19.948Z,46.4
2017-07-19T10:11:22.027Z,46.6
2017-07-19T10:12:24.101Z,46.8
2017-07-19T10:13:26.496Z,46.9
2017-07-19T10:14:28.578Z,46.7
2017-07-19T10:15:30.660Z,46.5
2017-07-19T10:16:33.086Z,46.3
2017-07-19T10:17:35.170Z,46
2017-07-19T10:18:37.231Z,46
2017-07-19T10:19:39.304Z,46
2017-07-19T10:20:41.728Z,45.9
2017-07-19T10:21:43.810Z,45.8
2017-07-19T10:22:46.919Z,45.9
2017-07-19T10:23:48.991Z,46
2017-07-19T10:24:51.062Z,45.8
2017-07-19T10:25:53.842Z,45.9
2017-07-19T10:26:56.581Z,46
2017-07-19T10:27:59.002Z,46
2017-07-19T10:29:01.424Z,45.9
2017-07-19T10:30:03.502Z,45.8
2017-07-19T10:31:05.593Z,45.7
2017-07-19T10:32:07.671Z,45.6
2017-07-19T10:33:09.738Z,45.2
2017-07-19T10:34:11.827Z,44.9
2017-07-19T10:35:13.905Z,44.8
2017-07-19T10:36:15.990Z,44.8
2017-07-19T10:37:18.093Z,44.8
2017-07-19T10:38:20.500Z,44.8
2017-07-19T10:39:22.580Z,44.7
2017-07-19T10:40:24.653Z,44.6
2017-07-19T10:41:26.728Z,44.6
2017-07-19T10:42:28.799Z,44.6
2017-07-19T10:43:30.875Z,44.4
2017-07-19T10:44:32.962Z,44.4
2017-07-19T10:45:35.360Z,44.5
2017-07-19T10:46:37.447Z,44.4
2017-07-19T10:47:39.520Z,44.2
2017-07-19T10:48:41.583Z,44.2
2017-07-19T10:49:43.668Z,44.2
2017-07-19T10:50:45.758Z,44.3
2017-07-19T10:51:48.167Z,44.2
2017-07-19T10:52:50.252Z,44.3
2017-07-19T10:53:52.310Z,44.2
2017-07-19T10:54:54.404Z,44
2017-07-19T10:55:56.812Z,43.9
2017-07-19T10:56:58.888Z,43.9
2017-07-19T10:58:01.322Z,44
2017-07-19T10:59:04.095Z,44.1
2017-07-19T11:00:06.510Z,44.2
2017-07-19T11:01:09.007Z,44.2
2017-07-19T11:02:11.105Z,44.1
2017-07-19T11:03:13.646Z,44
2017-07-19T11:04:16.065Z,44
2017-07-19T11:05:18.822Z,44.2
2017-07-19T11:06:20.898Z,44.1
2017-07-19T11:07:23.326Z,43.9
2017-07-19T11:08:25.406Z,43.9
2017-07-19T11:09:27.469Z,43.8
2017-07-19T11:10:29.906Z,43.9
2017-07-19T11:11:31.973Z,43.6
2017-07-19T11:12:34.382Z,43.5
2017-07-19T11:13:36.469Z,43.4
2017-07-19T11:14:38.892Z,43.4
2017-07-19T11:15:40.952Z,43.4
2017-07-19T11:16:43.373Z,43.4
2017-07-19T11:17:45.803Z,43.3
2017-07-19T11:18:47.879Z,43.2
2017-07-19T11:19:50.282Z,43.1
2017-07-19T11:20:52.374Z,43.1
2017-07-19T11:21:54.445Z,43.1
2017-07-19T11:22:56.866Z,43.2
2017-07-19T11:23:58.927Z,42.9
2017-07-19T11:25:01.014Z,42.7
2017-07-19T11:26:03.098Z,42.6
2017-07-19T11:27:05.507Z,42.5
2017-07-19T11:28:07.924Z,42.5
2017-07-19T11:29:10.340Z,42.4
2017-07-19T11:30:12.414Z,42.2
2017-07-19T11:31:14.832Z,42.4
2017-07-19T11:32:16.891Z,42.5
2017-07-19T11:33:19.305Z,42.6
2017-07-19T11:34:21.377Z,42.7
2017-07-19T11:35:23.456Z,42.5
2017-07-19T11:36:25.523Z,42.7
2017-07-19T11:37:27.608Z,42.5
2017-07-19T11:38:30.033Z,42.6
2017-07-19T11:39:32.805Z,42.7
2017-07-19T11:40:34.903Z,42.7
2017-07-19T11:41:36.969Z,42.6
2017-07-19T11:42:39.054Z,42.6
2017-07-19T11:43:41.465Z,42.5
2017-07-19T11:44:43.534Z,42.5
2017-07-19T11:45:46.294Z,42.5
2017-07-19T11:46:48.366Z,42.5
2017-07-19T11:47:50.432Z,42.5
2017-07-19T11:48:52.502Z,42.5
2017-07-19T11:49:54.576Z,42.6
2017-07-19T11:50:56.665Z,42.6
2017-07-19T11:51:58.730Z,42.7
2017-07-19T11:53:00.809Z,42.6
2017-07-19T11:54:02.895Z,42.5
2017-07-19T11:55:04.991Z,42.5
2017-07-19T11:56:07.399Z,42.4
2017-07-19T11:57:09.817Z,42.4
2017-07-19T11:58:12.259Z,42.3
2017-07-19T11:59:14.333Z,42.2
2017-07-19T12:00:16.411Z,42.2
2017-07-19T12:01:18.491Z,42.1
2017-07-19T12:02:20.902Z,42
2017-07-19T12:03:24.012Z,42
2017-07-19T12:04:26.080Z,41.9
2017-07-19T12:05:28.182Z,41.7
2017-07-19T12:06:31.344Z,41.7
2017-07-19T12:07:33.408Z,41.7
2017-07-19T12:08:35.517Z,41.7
2017-07-19T12:09:37.600Z,41.6
2017-07-19T12:10:39.675Z,41.7
2017-07-19T12:11:41.758Z,41.7
2017-07-19T12:12:43.943Z,41.6
2017-07-19T12:13:46.562Z,41.4
2017-07-19T12:14:48.645Z,41.3
2017-07-19T12:15:51.059Z,41.2
2017-07-19T12:16:53.128Z,41.2
2017-07-19T12:17:55.608Z,41.2
2017-07-19T12:18:57.682Z,41.2
2017-07-19T12:19:59.762Z,41.1
2017-07-19T12:21:01.844Z,41.2
2017-07-19T12:22:03.923Z,41.1
2017-07-19T12:23:06.001Z,40.9
2017-07-19T12:24:08.401Z,40.8
2017-07-19T12:25:10.485Z,40.8
2017-07-19T12:26:12.587Z,40.6
2017-07-19T12:27:14.997Z,40.4
2017-07-19T12:28:17.395Z,40.4
2017-07-19T12:29:19.474Z,40.3
2017-07-19T12:30:21.570Z,40.2
2017-07-19T12:31:23.987Z,40.2
2017-07-19T12:32:26.067Z,40.1
2017-07-19T12:33:28.150Z,40.1
2017-07-19T12:34:30.224Z,40.1
2017-07-19T12:35:32.298Z,40
2017-07-19T12:36:34.703Z,39.9
2017-07-19T12:37:36.785Z,39.8
2017-07-19T12:38:38.862Z,39.7
2017-07-19T12:39:41.273Z,39.7
2017-07-19T12:40:43.358Z,39.6
2017-07-19T12:41:45.427Z,39.6
2017-07-19T12:42:47.497Z,39.5
2017-07-19T12:43:49.580Z,39.5
2017-07-19T12:44:51.688Z,39.4
2017-07-19T12:45:53.767Z,39.6
2017-07-19T12:46:55.867Z,39.5
2017-07-19T12:47:57.956Z,39.5
2017-07-19T12:49:00.071Z,39.6
2017-07-19T12:50:02.540Z,39.6
2017-07-19T12:51:04.960Z,39.5
2017-07-19T12:52:07.024Z,39.6
2017-07-19T12:53:09.457Z,39.5
2017-07-19T12:54:11.542Z,39.3
2017-07-19T12:55:13.964Z,39.2
2017-07-19T12:56:16.385Z,39.2
2017-07-19T12:57:18.822Z,39
2017-07-19T12:58:21.288Z,38.9
2017-07-19T12:59:23.356Z,38.8
2017-07-19T13:00:25.451Z,38.7
2017-07-19T13:01:27.879Z,38.8
2017-07-19T13:02:29.953Z,38.7
2017-07-19T13:03:32.063Z,38.7
2017-07-19T13:04:34.484Z,38.7
2017-07-19T13:05:36.575Z,38.6
2017-07-19T13:06:38.703Z,38.7
2017-07-19T13:07:40.864Z,38.7
2017-07-19T13:08:43.674Z,38.7
2017-07-19T13:09:45.765Z,38.7
2017-07-19T13:10:47.860Z,38.5
2017-07-19T13:11:49.931Z,38.6
2017-07-19T13:12:52.364Z,38.6
2017-07-19T13:13:54.444Z,38.4
2017-07-19T13:14:56.939Z,38.3
2017-07-19T13:15:59.069Z,38.3
2017-07-19T13:17:01.169Z,38.2
2017-07-19T13:18:03.272Z,38.2
2017-07-19T13:19:05.717Z,38
2017-07-19T13:20:07.802Z,37.8
2017-07-19T13:21:10.262Z,37.7
2017-07-19T13:22:12.686Z,37.6
2017-07-19T13:23:14.810Z,37.6
2017-07-19T13:24:17.629Z,37.6
2017-07-19T13:25:19.851Z,37.5
2017-07-19T13:26:21.994Z,37.5
2017-07-19T13:27:24.422Z,37.5
2017-07-19T13:28:26.524Z,37.4
2017-07-19T13:29:28.606Z,37.3
2017-07-19T13:30:30.709Z,37.3
2017-07-19T13:31:32.913Z,37.2
2017-07-19T13:32:35.026Z,37
2017-07-19T13:33:37.797Z,36.9
2017-07-19T13:34:39.879Z,36.7
2017-07-19T13:35:41.967Z,36.7
2017-07-19T13:36:44.384Z,36.5
2017-07-19T13:37:46.456Z,36.4
2017-07-19T13:38:48.541Z,36.2
2017-07-19T13:39:50.972Z,36
2017-07-19T13:40:53.418Z,35.9
2017-07-19T13:41:55.824Z,35.8
2017-07-19T13:42:57.912Z,35.6
2017-07-19T13:44:00.334Z,35.5
2017-07-19T13:45:03.089Z,35.3
2017-07-19T13:46:05.170Z,35.2
2017-07-19T13:47:07.939Z,35.2
2017-07-19T13:48:10.364Z,35.1
2017-07-19T13:49:12.457Z,34.8
2017-07-19T13:50:14.551Z,34.8
2017-07-19T13:51:16.674Z,34.9
2017-07-19T13:52:19.108Z,34.9